APG1252 RPLL-VHHH
Flight info
| Callsign | APG1252 |
|---|---|
| Flight time | N/A |
| Altitude | 36000 |
| Route | CAB2R CAB A461 NOMAN V533 BETTY |
| Aircraft | A320/M-SDE3FGHIRWY/LB1 |
Departure
| Time | 2026-05-04 07:27 |
|---|---|
| Airport | Ninoy Aquino International Airport (RPLL) |
Arrival
| Time | N/A |
|---|---|
| Airport | Hong Kong International Airport (VHHH) |
| Time | Latitude | Longitude | Altitude | Speed | Heading |
|---|---|---|---|---|---|
| 2026-05-04 07:15 | 14.50431 | 121.00388 | 81 ft | 0 kts | 90° |
| 2026-05-04 07:17 | 14.50431 | 121.00386 | 81 ft | 1 kts | 90° |
| 2026-05-04 07:17 | 14.50431 | 121.00371 | 81 ft | 2 kts | 90° |
| 2026-05-04 07:17 | 14.50431 | 121.00356 | 81 ft | 2 kts | 90° |
| 2026-05-04 07:17 | 14.50431 | 121.00340 | 81 ft | 2 kts | 90° |
| 2026-05-04 07:18 | 14.50432 | 121.00325 | 81 ft | 2 kts | 90° |
| 2026-05-04 07:18 | 14.50432 | 121.00310 | 81 ft | 2 kts | 90° |
| 2026-05-04 07:18 | 14.50436 | 121.00296 | 81 ft | 2 kts | 143° |
| 2026-05-04 07:18 | 14.50447 | 121.00291 | 81 ft | 0 kts | 180° |
| 2026-05-04 07:19 | 14.50446 | 121.00291 | 81 ft | 2 kts | 178° |
| 2026-05-04 07:19 | 14.50405 | 121.00288 | 81 ft | 7 kts | 185° |
| 2026-05-04 07:19 | 14.50350 | 121.00284 | 81 ft | 7 kts | 185° |
| 2026-05-04 07:19 | 14.50299 | 121.00279 | 81 ft | 5 kts | 185° |
| 2026-05-04 07:20 | 14.50276 | 121.00277 | 81 ft | 0 kts | 185° |
| 2026-05-04 07:20 | 14.50259 | 121.00279 | 81 ft | 4 kts | 166° |
| 2026-05-04 07:20 | 14.50244 | 121.00286 | 81 ft | 0 kts | 149° |
| 2026-05-04 07:22 | 14.50243 | 121.00287 | 81 ft | 0 kts | 149° |
| 2026-05-04 07:23 | 14.50237 | 121.00290 | 81 ft | 1 kts | 149° |
| 2026-05-04 07:23 | 14.50224 | 121.00298 | 81 ft | 3 kts | 149° |
| 2026-05-04 07:23 | 14.50196 | 121.00316 | 81 ft | 5 kts | 149° |
| 2026-05-04 07:23 | 14.50152 | 121.00339 | 81 ft | 7 kts | 163° |
| 2026-05-04 07:24 | 14.50108 | 121.00307 | 81 ft | 9 kts | 235° |
| 2026-05-04 07:24 | 14.50071 | 121.00246 | 81 ft | 11 kts | 239° |
| 2026-05-04 07:24 | 14.50028 | 121.00169 | 81 ft | 13 kts | 243° |
| 2026-05-04 07:24 | 14.49983 | 121.00082 | 81 ft | 14 kts | 239° |
| 2026-05-04 07:25 | 14.49927 | 120.99988 | 82 ft | 16 kts | 238° |
| 2026-05-04 07:26 | 14.50744 | 121.01738 | 93 ft | 168 kts | 64° |
| 2026-05-04 07:27 | 14.51329 | 121.02808 | 486 ft | 175 kts | 64° |
| 2026-05-04 07:27 | 14.51933 | 121.03885 | 1110 ft | 175 kts | 63° |
| 2026-05-04 07:27 | 14.52500 | 121.04944 | 1815 ft | 168 kts | 62° |
| 2026-05-04 07:27 | 14.53089 | 121.05995 | 2158 ft | 172 kts | 61° |
| 2026-05-04 07:28 | 14.53749 | 121.07104 | 2335 ft | 186 kts | 59° |
| 2026-05-04 07:28 | 14.54438 | 121.08266 | 2608 ft | 195 kts | 60° |
| 2026-05-04 07:28 | 14.55180 | 121.09493 | 2797 ft | 211 kts | 57° |
| 2026-05-04 07:28 | 14.55964 | 121.10849 | 3062 ft | 224 kts | 63° |
| 2026-05-04 07:29 | 14.56790 | 121.12266 | 3360 ft | 238 kts | 49° |
| 2026-05-04 07:29 | 14.58221 | 121.13244 | 3637 ft | 258 kts | 20° |
| 2026-05-04 07:29 | 14.60033 | 121.13457 | 4129 ft | 268 kts | 2° |
| 2026-05-04 07:29 | 14.61908 | 121.13448 | 4765 ft | 269 kts | 3° |
| 2026-05-04 07:30 | 14.63766 | 121.13455 | 5396 ft | 271 kts | 2° |
| 2026-05-04 07:30 | 14.65665 | 121.13467 | 6062 ft | 272 kts | 2° |
| 2026-05-04 07:30 | 14.67591 | 121.13478 | 6731 ft | 275 kts | 2° |
| 2026-05-04 07:30 | 14.69485 | 121.13409 | 7388 ft | 278 kts | 356° |
| 2026-05-04 07:31 | 14.71417 | 121.13018 | 8055 ft | 282 kts | 346° |
| 2026-05-04 07:31 | 14.73293 | 121.12387 | 8701 ft | 285 kts | 344° |
| 2026-05-04 07:33 | 14.87552 | 121.07252 | 11786 ft | 336 kts | 344° |
| 2026-05-04 07:33 | 14.89855 | 121.06632 | 11906 ft | 336 kts | 351° |
| 2026-05-04 07:33 | 14.92203 | 121.06298 | 12025 ft | 340 kts | 357° |
| 2026-05-04 07:33 | 14.94552 | 121.06122 | 12554 ft | 341 kts | 358° |
| 2026-05-04 07:34 | 14.96957 | 121.05962 | 13114 ft | 342 kts | 358° |
| 2026-05-04 07:34 | 14.99328 | 121.05806 | 13593 ft | 345 kts | 358° |
| 2026-05-04 07:34 | 15.01746 | 121.05643 | 14041 ft | 349 kts | 358° |
| 2026-05-04 07:34 | 15.04205 | 121.05476 | 14517 ft | 352 kts | 358° |
| 2026-05-04 07:35 | 15.06652 | 121.05308 | 14986 ft | 354 kts | 358° |
| 2026-05-04 07:35 | 15.09136 | 121.05135 | 15472 ft | 356 kts | 358° |
| 2026-05-04 07:35 | 15.11637 | 121.04964 | 15959 ft | 357 kts | 357° |
| 2026-05-04 07:35 | 15.14126 | 121.04791 | 16395 ft | 359 kts | 357° |
| 2026-05-04 07:36 | 15.16626 | 121.04619 | 16850 ft | 361 kts | 357° |
| 2026-05-04 07:36 | 15.19166 | 121.04443 | 17274 ft | 364 kts | 357° |